Time;durP1;ratioP1;P1;durP2;ratioP2;P2;SDS_P1;SDS_P2;PMS_P1;PMS_P2;Temp;Humidity;BMP_temperature;BMP_pressure;BME280_temperature;BME280_humidity;BME280_pressure;Samples;Min_cycle;Max_cycle;Signal;HPM_P1;HPM_P2
2023/02/02 00:02:02;;;;;;;9.38;2.35;;;;;;;2.81;80.33;96613.31;5026050;28;20699;-73
2023/02/02 00:04:30;;;;;;;7.82;2.28;;;;;;;2.72;81.71;96622.16;5012002;28;20046;-75
2023/02/02 00:06:58;;;;;;;12.73;2.70;;;;;;;2.76;80.14;96597.16;5011833;28;20042;-76
2023/02/02 00:09:30;;;;;;;8.70;2.55;;;;;;;2.84;79.17;96599.34;5019786;28;20038;-76
2023/02/02 00:11:57;;;;;;;8.63;2.10;;;;;;;2.89;78.25;96601.25;5021953;28;20053;-74
2023/02/02 00:14:24;;;;;;;7.65;2.35;;;;;;;3.05;77.01;96615.59;5010405;28;20493;-75
2023/02/02 00:16:53;;;;;;;10.60;2.40;;;;;;;3.05;77.05;96610.19;5027155;28;20041;-74
2023/02/02 00:19:22;;;;;;;9.23;3.10;;;;;;;3.09;76.31;96611.31;5019119;28;20412;-74
2023/02/02 00:21:49;;;;;;;10.20;2.03;;;;;;;3.10;76.12;96607.53;5011658;28;20041;-74
2023/02/02 00:24:17;;;;;;;7.53;2.10;;;;;;;3.12;76.21;96600.00;5010110;28;20045;-75
2023/02/02 00:26:45;;;;;;;9.90;1.80;;;;;;;3.09;76.73;96600.53;5019347;28;20050;-74
2023/02/02 00:29:16;;;;;;;6.15;1.85;;;;;;;3.10;76.53;96602.97;5010668;28;20042;-75
2023/02/02 00:31:42;;;;;;;10.82;2.88;;;;;;;3.02;77.55;96589.19;5025270;28;20049;-77
2023/02/02 00:34:11;;;;;;;7.97;2.10;;;;;;;2.99;77.44;96585.16;5020706;28;20041;-75
2023/02/02 00:36:38;;;;;;;9.77;2.28;;;;;;;3.02;77.27;96573.06;5019178;28;20046;-78
2023/02/02 00:39:04;;;;;;;7.20;2.22;;;;;;;2.97;77.74;96581.91;5019048;28;20052;-81
2023/02/02 00:41:31;;;;;;;8.50;1.80;;;;;;;3.01;77.08;96574.13;5017997;28;20514;-79
2023/02/02 00:46:42;;;;;;;7.05;1.98;;;;;;;3.12;75.35;96559.63;5010811;28;20697;-77
2023/02/02 00:49:09;;;;;;;11.52;2.17;;;;;;;3.08;75.97;96572.00;5018328;28;20045;-75
2023/02/02 00:51:37;;;;;;;7.30;2.17;;;;;;;3.08;75.49;96566.59;5015842;28;20521;-74
2023/02/02 00:54:04;;;;;;;9.48;2.17;;;;;;;3.11;75.77;96571.47;5012593;28;20053;-75
2023/02/02 00:56:31;;;;;;;13.50;2.65;;;;;;;3.06;76.56;96569.56;5018211;28;20054;-78
2023/02/02 00:58:57;;;;;;;13.52;2.20;;;;;;;2.98;77.71;96562.03;5018168;28;20050;-78
2023/02/02 01:01:24;;;;;;;8.57;2.13;;;;;;;2.92;78.24;96573.00;5015902;28;20648;-74
2023/02/02 01:03:51;;;;;;;7.85;2.28;;;;;;;2.93;78.38;96558.53;5025898;28;20045;-75
2023/02/02 01:06:18;;;;;;;12.52;1.90;;;;;;;2.86;79.24;96564.94;5019136;28;20041;-76
2023/02/02 01:08:45;;;;;;;7.22;2.03;;;;;;;2.81;79.48;96567.59;5010230;28;20498;-74
2023/02/02 01:11:12;;;;;;;9.18;2.10;;;;;;;2.79;79.41;96564.38;5018488;28;20042;-80
2023/02/02 01:13:38;;;;;;;12.55;2.63;;;;;;;2.81;79.78;96564.09;5010764;28;20042;-78
2023/02/02 01:16:06;;;;;;;8.68;1.90;;;;;;;2.83;79.41;96560.09;5018279;28;20720;-74
2023/02/02 01:18:32;;;;;;;7.07;1.67;;;;;;;2.85;79.64;96557.94;5010327;28;20042;-74
2023/02/02 01:20:59;;;;;;;13.18;2.60;;;;;;;2.84;79.45;96561.72;5010789;28;20513;-77
2023/02/02 01:23:26;;;;;;;9.32;2.10;;;;;;;2.87;79.35;96561.19;5010431;28;20042;-76
2023/02/02 01:25:56;;;;;;;8.95;2.17;;;;;;;2.88;79.21;96551.25;5010277;28;20494;-74
2023/02/02 01:28:23;;;;;;;7.68;2.67;;;;;;;2.89;78.63;96547.47;5009226;28;20506;-75
2023/02/02 01:30:50;;;;;;;7.65;1.83;;;;;;;2.85;79.79;96560.63;5014623;28;20041;-75
2023/02/02 01:33:17;;;;;;;10.63;2.22;;;;;;;2.73;81.37;96559.25;5010336;28;20410;-74
2023/02/02 01:35:47;;;;;;;10.60;1.80;;;;;;;2.61;82.72;96562.16;5010158;28;20042;-76
2023/02/02 01:38:14;;;;;;;9.63;2.30;;;;;;;2.54;83.33;96537.38;5019473;28;20038;-75
2023/02/02 01:40:45;;;;;;;9.43;2.70;;;;;;;2.53;83.36;96554.59;5015939;28;20516;-76
2023/02/02 01:43:22;;;;;;;9.77;2.10;;;;;;;2.60;82.39;96544.38;5009559;28;20049;-80
2023/02/02 01:45:49;;;;;;;6.95;1.88;;;;;;;2.59;82.98;96542.78;5010006;28;20049;-74
2023/02/02 01:48:17;;;;;;;12.18;2.42;;;;;;;2.57;83.31;96528.81;5027183;28;20056;-77
2023/02/02 01:50:44;;;;;;;14.07;2.75;;;;;;;2.63;82.72;96532.31;5022292;28;20052;-74
2023/02/02 01:53:11;;;;;;;7.70;1.90;;;;;;;2.68;81.96;96517.00;5043721;28;20040;-76
2023/02/02 01:55:41;;;;;;;7.80;2.00;;;;;;;2.68;81.90;96524.28;5022478;28;20053;-75
2023/02/02 01:58:11;;;;;;;9.60;2.17;;;;;;;2.67;82.05;96518.09;5032179;28;20049;-78
2023/02/02 02:00:42;;;;;;;11.35;2.40;;;;;;;2.79;81.03;96523.22;5025307;28;20040;-76
2023/02/02 02:03:12;;;;;;;10.07;2.00;;;;;;;2.88;79.93;96514.38;5020935;28;20050;-78
2023/02/02 02:05:43;;;;;;;11.20;1.92;;;;;;;2.92;79.29;96513.84;5034807;28;20038;-75
2023/02/02 02:08:15;;;;;;;9.60;2.28;;;;;;;2.96;78.94;96521.13;5024431;28;20488;-78
2023/02/02 02:10:41;;;;;;;6.32;2.13;;;;;;;3.02;77.97;96509.28;5028066;28;20042;-82
2023/02/02 02:13:08;;;;;;;8.23;1.90;;;;;;;3.00;78.88;96516.03;5028297;28;20046;-77
2023/02/02 02:18:36;;;;;;;8.60;2.40;;;;;;;3.02;78.80;96520.06;5020430;28;20053;-83
2023/02/02 02:28:07;;;;;;;5.82;2.20;;;;;;;2.82;80.98;96504.69;5022192;28;20069;-79
2023/02/02 02:30:53;;;;;;;6.68;2.25;;;;;;;2.87;79.90;96511.94;5020640;28;20405;-79
2023/02/02 02:33:29;;;;;;;7.75;2.05;;;;;;;2.86;79.97;96513.81;5026832;28;20050;-81
2023/02/02 02:36:03;;;;;;;10.60;2.65;;;;;;;2.85;81.17;96514.09;5026682;28;20050;-77
2023/02/02 02:38:36;;;;;;;10.43;2.53;;;;;;;2.72;83.02;96515.41;5020406;28;20058;-79
2023/02/02 02:41:08;;;;;;;12.52;2.90;;;;;;;2.56;84.83;96529.88;5018115;28;20038;-79
2023/02/02 02:43:40;;;;;;;10.00;2.20;;;;;;;2.61;83.37;96519.94;5018004;28;20060;-81
2023/02/02 02:46:08;;;;;;;7.18;1.90;;;;;;;2.60;83.63;96528.25;5025966;28;20405;-78
2023/02/02 02:48:36;;;;;;;11.88;2.20;;;;;;;2.74;82.22;96513.25;5018865;28;20046;-75
2023/02/02 02:51:07;;;;;;;8.77;2.58;;;;;;;2.78;82.35;96508.97;5024241;28;20048;-76
2023/02/02 02:53:35;;;;;;;10.00;2.15;;;;;;;2.80;81.71;96509.50;5013742;28;20049;-74
2023/02/02 02:56:11;;;;;;;8.07;2.00;;;;;;;2.82;81.71;96502.00;5013262;28;20578;-75
2023/02/02 02:58:46;;;;;;;7.25;2.20;;;;;;;2.86;81.34;96510.34;5024489;28;20069;-78
2023/02/02 03:01:20;;;;;;;11.88;2.30;;;;;;;2.67;83.85;96506.53;5021718;28;20501;-75
2023/02/02 03:04:00;;;;;;;15.23;3.28;;;;;;;2.48;86.60;96506.19;5019800;28;20424;-76
2023/02/02 03:06:31;;;;;;;11.40;2.63;;;;;;;2.51;85.47;96511.03;5024591;28;20041;-75
2023/02/02 03:09:02;;;;;;;7.32;1.95;;;;;;;2.54;85.09;96511.31;5024216;28;20037;-75
2023/02/02 03:11:29;;;;;;;10.10;2.30;;;;;;;2.62;84.14;96515.38;5024740;28;20038;-75
2023/02/02 03:13:56;;;;;;;10.80;2.05;;;;;;;2.67;83.51;96518.09;5016493;28;20050;-77
2023/02/02 03:16:23;;;;;;;9.45;2.10;;;;;;;2.68;83.61;96502.75;5012111;28;20053;-75
2023/02/02 03:18:51;;;;;;;8.15;2.38;;;;;;;2.74;82.23;96518.63;5020891;28;20046;-75
2023/02/02 03:21:17;;;;;;;7.38;2.45;;;;;;;2.72;82.66;96504.66;5030029;28;20068;-79
2023/02/02 03:23:44;;;;;;;9.23;2.22;;;;;;;2.70;82.89;96528.28;5032762;28;20041;-75
2023/02/02 03:26:10;;;;;;;10.48;2.65;;;;;;;2.71;83.81;96540.66;5015072;28;20046;-77
2023/02/02 03:28:37;;;;;;;12.93;2.50;;;;;;;2.57;85.04;96544.94;5018438;28;20061;-75
2023/02/02 03:31:04;;;;;;;13.73;3.17;;;;;;;2.51;86.11;96525.28;5025927;28;20049;-74
2023/02/02 03:33:35;;;;;;;10.00;2.88;;;;;;;2.58;85.83;96546.53;5020566;28;20125;-83
2023/02/02 03:36:03;;;;;;;8.65;2.67;;;;;;;2.50;86.65;96537.09;5011294;28;20386;-75
2023/02/02 03:38:30;;;;;;;10.88;2.53;;;;;;;2.51;87.33;96532.53;5016064;28;20509;-77
2023/02/02 03:40:58;;;;;;;13.10;2.45;;;;;;;2.48;87.82;96535.75;5023856;28;20042;-76
2023/02/02 03:43:25;;;;;;;6.70;2.20;;;;;;;2.43;88.68;96535.72;5011658;28;20038;-75
2023/02/02 03:45:56;;;;;;;9.27;2.58;;;;;;;2.43;88.47;96535.72;5027331;28;20049;-77
2023/02/02 03:48:23;;;;;;;12.80;2.15;;;;;;;2.41;88.45;96535.19;5019667;28;20045;-75
2023/02/02 03:50:49;;;;;;;12.10;3.13;;;;;;;2.52;87.13;96531.47;5020475;28;20050;-75
2023/02/02 03:53:17;;;;;;;9.65;2.55;;;;;;;2.50;87.14;96537.09;5019585;28;20484;-76
2023/02/02 03:55:44;;;;;;;9.13;2.78;;;;;;;2.45;87.82;96539.75;5018117;28;20413;-78
2023/02/02 03:58:10;;;;;;;6.72;2.33;;;;;;;2.42;88.36;96550.22;5012770;28;20052;-76
2023/02/02 04:00:37;;;;;;;10.45;2.50;;;;;;;2.40;88.75;96539.72;5015088;28;20497;-75
2023/02/02 04:03:03;;;;;;;11.75;3.28;;;;;;;2.39;89.00;96542.69;5013993;28;20054;-77
2023/02/02 04:05:30;;;;;;;7.88;2.88;;;;;;;2.37;89.29;96528.69;5015793;28;20046;-76
2023/02/02 04:07:56;;;;;;;9.35;2.75;;;;;;;2.35;89.51;96542.41;5023505;28;20520;-79
2023/02/02 04:10:24;;;;;;;7.05;2.35;;;;;;;2.30;90.26;96550.44;5010784;28;20049;-76
2023/02/02 04:12:51;;;;;;;10.13;2.58;;;;;;;2.42;88.89;96547.53;5011306;28;20041;-77
2023/02/02 04:15:17;;;;;;;13.73;3.03;;;;;;;2.45;88.56;96541.63;5019162;28;20041;-81
2023/02/02 04:17:44;;;;;;;9.02;2.50;;;;;;;2.49;88.74;96537.34;5011088;28;20049;-78
2023/02/02 04:20:12;;;;;;;13.82;3.20;;;;;;;2.47;88.65;96561.81;5018899;28;20052;-76
2023/02/02 04:22:38;;;;;;;7.35;2.30;;;;;;;2.55;87.93;96552.44;5016870;28;20053;-81
2023/02/02 04:25:06;;;;;;;10.20;2.65;;;;;;;2.57;87.38;96550.31;5014020;28;20646;-78
2023/02/02 04:27:34;;;;;;;10.40;2.63;;;;;;;2.56;87.71;96546.00;5017631;28;20137;-77
2023/02/02 04:30:00;;;;;;;6.88;2.38;;;;;;;2.54;88.13;96557.00;5011044;28;20053;-76
2023/02/02 04:32:27;;;;;;;8.90;2.40;;;;;;;2.51;88.97;96554.03;5016968;28;20672;-74
2023/02/02 04:34:53;;;;;;;8.50;2.42;;;;;;;2.52;88.45;96552.97;5011224;28;20050;-75
2023/02/02 04:37:20;;;;;;;7.20;2.35;;;;;;;2.51;88.79;96554.84;5018642;28;20057;-79
2023/02/02 04:39:48;;;;;;;10.30;2.72;;;;;;;2.42;89.99;96547.53;5010907;28;20037;-77
2023/02/02 04:42:14;;;;;;;13.02;2.80;;;;;;;2.26;92.28;96560.91;5012975;28;20041;-78
2023/02/02 04:44:44;;;;;;;15.07;3.47;;;;;;;2.15;93.63;96553.84;5009684;28;20409;-77
2023/02/02 04:47:11;;;;;;;10.85;2.75;;;;;;;2.11;94.92;96563.47;5009973;28;20054;-75
2023/02/02 04:49:37;;;;;;;13.57;2.60;;;;;;;2.10;95.10;96556.50;5010163;28;20048;-76
2023/02/02 04:52:04;;;;;;;12.27;2.70;;;;;;;2.13;94.66;96565.91;5018407;28;20200;-78
2023/02/02 04:54:31;;;;;;;9.73;2.55;;;;;;;2.18;94.26;96556.00;5018814;28;20041;-75
2023/02/02 04:56:57;;;;;;;10.35;2.45;;;;;;;2.23;93.69;96550.66;5018270;28;20564;-76
2023/02/02 04:59:24;;;;;;;14.10;3.00;;;;;;;2.22;93.83;96553.59;5013297;28;20045;-75
2023/02/02 05:01:52;;;;;;;9.48;2.90;;;;;;;2.27;92.74;96573.25;5020820;28;20057;-77
2023/02/02 05:04:18;;;;;;;11.13;2.55;;;;;;;2.30;93.01;96572.75;5009637;28;20052;-75
2023/02/02 05:06:45;;;;;;;10.90;2.70;;;;;;;2.24;93.99;96568.38;5010384;28;20612;-76
2023/02/02 05:09:13;;;;;;;12.95;3.13;;;;;;;2.22;94.35;96575.91;5009564;28;20053;-76
2023/02/02 05:11:43;;;;;;;13.20;3.00;;;;;;;2.14;95.57;96578.25;5016145;28;20098;-78
2023/02/02 05:14:10;;;;;;;10.52;2.90;;;;;;;2.18;94.88;96572.13;5011691;28;20401;-76
2023/02/02 05:16:38;;;;;;;10.10;2.60;;;;;;;2.18;95.01;96576.69;5019226;28;20049;-76
2023/02/02 05:19:06;;;;;;;13.60;3.30;;;;;;;2.16;95.54;96576.94;5009351;28;20119;-75
2023/02/02 05:21:32;;;;;;;7.95;2.30;;;;;;;2.27;94.04;96570.56;5018235;28;20050;-77
2023/02/02 05:24:00;;;;;;;10.07;2.38;;;;;;;2.31;93.91;96584.31;5026303;28;20042;-75
2023/02/02 05:26:27;;;;;;;10.13;2.50;;;;;;;2.32;93.43;96594.78;5013512;28;20061;-77
2023/02/02 05:28:53;;;;;;;8.65;2.25;;;;;;;2.37;93.34;96587.81;5013992;28;20049;-77
2023/02/02 05:31:20;;;;;;;5.95;2.05;;;;;;;2.48;92.51;96592.19;5017174;28;20049;-75
2023/02/02 05:33:47;;;;;;;12.73;2.55;;;;;;;2.54;91.05;96588.44;5010011;28;20049;-76
2023/02/02 05:36:14;;;;;;;7.53;2.67;;;;;;;2.50;91.71;96600.78;5017721;28;20050;-75
2023/02/02 05:38:41;;;;;;;8.95;2.60;;;;;;;2.45;92.95;96587.31;5009334;28;20745;-79
2023/02/02 05:41:07;;;;;;;12.98;2.83;;;;;;;2.41;93.12;96580.88;5009220;28;20493;-78
2023/02/02 05:43:34;;;;;;;9.02;2.20;;;;;;;2.40;93.20;96592.66;5009511;28;20049;-80
2023/02/02 05:46:01;;;;;;;6.97;2.47;;;;;;;2.47;92.01;96583.31;5009763;28;20042;-77
2023/02/02 05:48:27;;;;;;;10.23;2.58;;;;;;;2.48;92.60;96584.13;5008295;28;20049;-77
2023/02/02 05:51:01;;;;;;;8.48;2.10;;;;;;;2.52;91.79;96569.09;5009914;28;20042;-76
2023/02/02 05:53:30;;;;;;;8.18;2.15;;;;;;;2.57;91.17;96585.25;5009506;28;20034;-78
2023/02/02 05:55:57;;;;;;;6.47;2.67;;;;;;;2.61;90.55;96568.34;5017596;28;20042;-75
2023/02/02 05:58:25;;;;;;;8.45;2.47;;;;;;;2.67;90.02;96574.56;5008983;28;20046;-77
2023/02/02 06:00:51;;;;;;;16.98;2.33;;;;;;;2.70;90.20;96574.00;5014848;28;20087;-75
2023/02/02 06:03:18;;;;;;;10.70;2.67;;;;;;;2.64;90.60;96575.06;5009926;28;20046;-76
2023/02/02 06:05:44;;;;;;;6.63;2.00;;;;;;;2.62;91.65;96579.91;5009954;28;20041;-75
2023/02/02 06:08:11;;;;;;;15.77;2.78;;;;;;;2.59;91.84;96596.53;5010320;28;20069;-76
2023/02/02 06:10:40;;;;;;;11.48;2.70;;;;;;;2.54;92.72;96591.94;5015790;28;20049;-74
2023/02/02 06:13:07;;;;;;;10.05;2.50;;;;;;;2.51;93.07;96591.69;5008856;28;20505;-79
2023/02/02 06:15:33;;;;;;;6.55;1.92;;;;;;;2.46;93.45;96591.66;5009673;28;20409;-76
2023/02/02 06:18:00;;;;;;;9.27;2.03;;;;;;;2.51;92.70;96589.78;5009770;28;20220;-76
2023/02/02 06:20:27;;;;;;;8.77;1.95;;;;;;;2.53;92.52;96592.22;5009638;28;20046;-78
2023/02/02 06:22:53;;;;;;;8.07;2.60;;;;;;;2.56;92.08;96591.72;5010181;28;20064;-76
2023/02/02 06:25:20;;;;;;;7.65;2.10;;;;;;;2.64;90.83;96577.75;5009270;28;20050;-76
2023/02/02 06:27:48;;;;;;;8.05;2.20;;;;;;;2.69;90.54;96585.03;5009458;28;20042;-82
2023/02/02 06:30:15;;;;;;;9.20;2.78;;;;;;;2.82;88.97;96582.69;5010496;28;20504;-78
2023/02/02 06:32:42;;;;;;;11.20;2.20;;;;;;;2.75;90.09;96583.97;5017633;28;20038;-78
2023/02/02 06:35:09;;;;;;;5.22;1.95;;;;;;;2.73;90.01;96602.28;5010902;28;20046;-76
2023/02/02 06:37:37;;;;;;;10.98;2.03;;;;;;;2.79;89.97;96595.84;5015437;28;20034;-77
2023/02/02 06:40:05;;;;;;;8.32;2.10;;;;;;;2.82;89.26;96601.50;5012194;28;20038;-83
2023/02/02 06:42:32;;;;;;;4.78;1.85;;;;;;;2.83;89.20;96616.56;5015401;28;20041;-80
2023/02/02 06:45:00;;;;;;;9.02;1.77;;;;;;;2.86;88.33;96613.34;5013979;28;20034;-80
2023/02/02 06:47:26;;;;;;;6.70;1.70;;;;;;;2.84;89.03;96609.31;5009718;28;20049;-76
2023/02/02 06:49:53;;;;;;;7.68;1.90;;;;;;;2.85;89.12;96611.72;5021494;28;20431;-78
2023/02/02 06:52:20;;;;;;;5.78;2.20;;;;;;;2.86;88.68;96613.34;5011110;28;20045;-84
2023/02/02 06:54:46;;;;;;;8.18;1.90;;;;;;;2.82;89.13;96612.28;5018400;28;20046;-80
2023/02/02 06:57:13;;;;;;;8.52;2.13;;;;;;;2.82;89.80;96609.59;5009065;28;20050;-81
2023/02/02 06:59:40;;;;;;;7.75;2.30;;;;;;;2.75;90.33;96617.06;5009798;28;20145;-84
2023/02/02 07:02:12;;;;;;;12.00;1.90;;;;;;;2.72;91.13;96622.16;5024395;28;20045;-80
2023/02/02 07:04:38;;;;;;;4.25;1.73;;;;;;;2.72;90.95;96622.97;5015617;28;20057;-85
2023/02/02 07:07:05;;;;;;;3.90;2.10;;;;;;;2.71;91.28;96625.91;5015681;28;20038;-79
2023/02/02 07:09:32;;;;;;;8.60;2.30;;;;;;;2.71;91.08;96624.03;5024540;28;20056;-81
2023/02/02 07:11:58;;;;;;;11.00;1.95;;;;;;;2.68;91.57;96631.81;5024694;28;20064;-80
2023/02/02 07:14:25;;;;;;;7.53;1.85;;;;;;;2.65;91.71;96638.50;5020599;28;20049;-79
2023/02/02 07:16:52;;;;;;;7.78;2.03;;;;;;;2.63;91.91;96632.59;5013550;28;20049;-80
2023/02/02 07:19:20;;;;;;;5.88;1.83;;;;;;;2.64;92.60;96642.28;5020744;28;20049;-78
2023/02/02 07:21:46;;;;;;;6.47;1.90;;;;;;;2.67;92.12;96647.16;5013104;28;20045;-80
2023/02/02 07:24:13;;;;;;;7.88;2.13;;;;;;;2.75;90.97;96649.31;5020670;28;20050;-81
2023/02/02 07:26:39;;;;;;;7.53;2.08;;;;;;;2.74;91.42;96647.72;5013106;28;20042;-81
2023/02/02 07:29:06;;;;;;;11.05;2.38;;;;;;;2.72;91.65;96644.50;5020741;28;20469;-78
2023/02/02 07:31:32;;;;;;;8.57;1.90;;;;;;;2.67;92.58;96640.97;5020101;28;20049;-78
2023/02/02 07:33:59;;;;;;;7.20;2.08;;;;;;;2.73;91.50;96661.44;5021509;28;20505;-81
2023/02/02 07:36:27;;;;;;;8.02;1.88;;;;;;;2.66;92.88;96653.56;5012775;28;20053;-81
2023/02/02 07:38:56;;;;;;;7.78;2.20;;;;;;;2.60;93.23;96641.16;5021169;28;20045;-78
2023/02/02 07:41:23;;;;;;;6.38;2.00;;;;;;;2.55;94.63;96660.75;5020737;28;20053;-80
2023/02/02 07:43:50;;;;;;;8.38;2.00;;;;;;;2.56;94.75;96661.59;5021408;28;20046;-80
2023/02/02 07:46:18;;;;;;;7.18;2.33;;;;;;;2.53;95.00;96657.53;5015006;28;20045;-82
2023/02/02 07:48:45;;;;;;;8.57;2.20;;;;;;;2.46;97.11;96666.91;5018256;28;20045;-78
2023/02/02 07:51:14;;;;;;;8.90;2.20;;;;;;;2.52;95.63;96666.69;5012930;28;20049;-80
2023/02/02 07:53:44;;;;;;;12.13;2.47;;;;;;;2.48;97.49;96659.38;5020839;28;20044;-80
2023/02/02 07:56:13;;;;;;;5.07;1.90;;;;;;;2.47;97.15;96663.94;5012043;28;20049;-82
2023/02/02 07:58:39;;;;;;;10.30;2.83;;;;;;;2.50;97.93;96668.00;5012821;28;20045;-78
2023/02/02 08:01:08;;;;;;;7.97;2.38;;;;;;;2.52;96.44;96657.81;5017763;28;20497;-83
2023/02/02 08:03:36;;;;;;;4.85;2.30;;;;;;;2.53;96.52;96662.09;5012756;28;20128;-85
2023/02/02 08:06:10;;;;;;;7.93;2.30;;;;;;;2.53;96.59;96672.84;5011668;28;20042;-78
2023/02/02 08:08:37;;;;;;;12.68;2.45;;;;;;;2.50;97.11;96665.31;5012000;28;20046;-78
2023/02/02 08:11:05;;;;;;;8.05;2.42;;;;;;;2.52;97.49;96666.69;5020336;28;20045;-86
2023/02/02 08:13:31;;;;;;;8.57;2.50;;;;;;;2.50;97.85;96668.00;5012603;28;20049;-81
2023/02/02 08:15:58;;;;;;;7.50;2.30;;;;;;;2.46;98.51;96666.91;5020531;28;20049;-81
2023/02/02 08:18:24;;;;;;;8.48;2.05;;;;;;;2.56;96.68;96680.41;5011327;28;20046;-81
2023/02/02 08:20:51;;;;;;;10.15;2.35;;;;;;;2.58;96.50;96680.97;5020143;28;20042;-81
2023/02/02 08:23:22;;;;;;;7.82;2.35;;;;;;;2.62;96.61;96687.44;5027166;28;20044;-78
2023/02/02 08:25:48;;;;;;;7.32;2.38;;;;;;;2.67;95.58;96684.78;5008380;28;20048;-81
2023/02/02 08:28:17;;;;;;;8.25;2.30;;;;;;;2.73;94.60;96702.56;5011399;28;20042;-82
2023/02/02 08:30:43;;;;;;;10.63;2.70;;;;;;;2.79;94.40;96700.72;5015480;28;20041;-81
2023/02/02 08:33:10;;;;;;;10.48;2.50;;;;;;;2.85;93.31;96703.19;5011056;28;20441;-80
2023/02/02 08:35:41;;;;;;;9.88;2.55;;;;;;;2.93;92.15;96693.00;5018753;28;20042;-81
2023/02/02 08:38:07;;;;;;;7.72;2.15;;;;;;;2.94;92.74;96700.81;5020220;28;20739;-81
2023/02/02 08:40:33;;;;;;;9.50;2.60;;;;;;;2.99;92.17;96716.19;5018257;28;20050;-79
2023/02/02 08:43:00;;;;;;;10.80;2.65;;;;;;;2.97;92.15;96711.03;5011480;28;20048;-83
2023/02/02 08:45:28;;;;;;;8.45;3.00;;;;;;;2.93;92.88;96715.34;5030906;28;20038;-79
2023/02/02 08:47:54;;;;;;;10.88;2.25;;;;;;;2.91;92.68;96705.91;5015421;28;20050;-85
2023/02/02 08:50:21;;;;;;;8.10;2.25;;;;;;;2.86;93.58;96715.53;5027080;28;20528;-80
2023/02/02 08:52:47;;;;;;;6.88;2.53;;;;;;;2.85;94.34;96719.31;5018280;28;20045;-78
2023/02/02 08:55:14;;;;;;;8.40;2.20;;;;;;;2.86;93.96;96714.75;5020313;28;20531;-82
2023/02/02 08:57:41;;;;;;;14.32;2.95;;;;;;;2.85;94.53;96707.75;5011089;28;20413;-80
2023/02/02 09:00:09;;;;;;;12.90;5.93;;;;;;;2.84;94.49;96712.31;5011252;28;20038;-81
2023/02/02 09:02:38;;;;;;;12.68;3.28;;;;;;;2.94;94.30;96702.69;5017067;28;20041;-80
2023/02/02 09:05:06;;;;;;;6.20;2.50;;;;;;;2.92;94.05;96702.94;5010107;28;20037;-82
2023/02/02 09:07:32;;;;;;;7.72;2.53;;;;;;;2.88;94.49;96715.31;5010487;28;20046;-79
2023/02/02 09:09:59;;;;;;;5.88;2.22;;;;;;;2.93;93.96;96714.53;5011073;28;20529;-81
2023/02/02 09:12:26;;;;;;;9.38;2.75;;;;;;;2.91;94.91;96724.72;5009871;28;20065;-81
2023/02/02 09:14:52;;;;;;;7.85;2.33;;;;;;;2.91;95.14;96711.28;5018245;28;20045;-84
2023/02/02 09:17:19;;;;;;;7.20;2.50;;;;;;;2.99;93.26;96718.88;5010793;28;20073;-84
2023/02/02 09:19:46;;;;;;;11.18;2.97;;;;;;;2.99;93.52;96718.88;5009881;28;20049;-78
2023/02/02 09:22:13;;;;;;;9.60;2.55;;;;;;;3.03;94.32;96719.97;5020276;28;20041;-82
2023/02/02 09:24:39;;;;;;;7.00;2.40;;;;;;;3.03;93.57;96719.97;5025254;28;20046;-79
2023/02/02 09:27:06;;;;;;;7.43;2.47;;;;;;;3.08;92.83;96711.91;5026816;28;20041;-80
2023/02/02 09:29:33;;;;;;;7.10;2.33;;;;;;;3.10;93.51;96709.78;5010654;28;20057;-78
2023/02/02 09:31:59;;;;;;;7.90;2.50;;;;;;;3.11;92.88;96711.38;5016993;28;20038;-81
2023/02/02 09:34:26;;;;;;;7.43;2.83;;;;;;;3.11;92.95;96722.16;5026412;28;20049;-82
2023/02/02 09:36:54;;;;;;;6.70;2.45;;;;;;;3.12;92.61;96735.34;5019009;28;20049;-81
2023/02/02 09:39:20;;;;;;;6.10;2.25;;;;;;;3.16;92.52;96735.63;5017561;28;20765;-79
2023/02/02 09:42:13;;;;;;;9.80;2.38;;;;;;;3.18;92.92;96730.78;5018365;28;20422;-78
2023/02/02 09:44:57;;;;;;;8.93;2.55;;;;;;;3.17;92.89;96737.25;5010586;28;20053;-80
2023/02/02 09:47:28;;;;;;;10.13;2.42;;;;;;;3.17;92.75;96726.47;5017720;28;20048;-80
2023/02/02 09:50:00;;;;;;;8.10;2.58;;;;;;;3.19;92.35;96731.63;5018663;28;20042;-79
2023/02/02 09:52:33;;;;;;;7.10;2.22;;;;;;;3.22;93.18;96739.97;5010031;28;20053;-78
2023/02/02 09:55:04;;;;;;;6.50;2.50;;;;;;;3.24;92.32;96740.53;5001687;28;20053;-79
2023/02/02 09:57:38;;;;;;;7.05;2.47;;;;;;;3.26;92.14;96742.94;5010995;28;20046;-80
2023/02/02 10:00:06;;;;;;;5.85;2.50;;;;;;;3.26;92.11;96734.88;5009291;28;20046;-80
2023/02/02 10:02:38;;;;;;;6.35;1.83;;;;;;;3.32;91.80;96734.63;5020992;28;20042;-78
2023/02/02 10:05:11;;;;;;;7.97;2.35;;;;;;;3.32;92.21;96756.16;5013409;28;20049;-78
2023/02/02 10:07:44;;;;;;;6.45;2.17;;;;;;;3.29;92.32;96743.25;5015739;28;20050;-84
2023/02/02 10:10:18;;;;;;;6.95;2.35;;;;;;;3.29;93.20;96739.72;5011850;28;20100;-81
2023/02/02 10:12:52;;;;;;;8.93;3.35;;;;;;;3.28;92.69;96733.53;5015691;28;20057;-79
2023/02/02 10:15:24;;;;;;;8.10;2.47;;;;;;;3.28;92.83;96741.59;5010151;28;20054;-82
2023/02/02 10:17:55;;;;;;;5.25;2.10;;;;;;;3.27;93.72;96736.50;5010000;28;20057;-78
2023/02/02 10:20:33;;;;;;;5.55;2.38;;;;;;;3.24;94.36;96748.59;5013239;28;20053;-79
2023/02/02 10:23:15;;;;;;;6.05;2.22;;;;;;;3.20;94.92;96755.56;5021530;28;20041;-79
2023/02/02 10:25:51;;;;;;;6.15;2.53;;;;;;;3.18;95.57;96743.44;5018830;28;20065;-82
2023/02/02 10:28:20;;;;;;;8.52;2.60;;;;;;;3.17;95.46;96736.44;5009122;28;20562;-80
2023/02/02 10:30:55;;;;;;;9.68;2.38;;;;;;;3.15;96.08;96744.78;5014915;28;20064;-80
2023/02/02 10:33:37;;;;;;;7.93;2.85;;;;;;;3.14;96.17;96745.88;5022157;28;20072;-85
2023/02/02 10:36:13;;;;;;;8.40;2.70;;;;;;;3.12;96.59;96740.72;5013235;28;20100;-78
2023/02/02 10:38:47;;;;;;;6.07;2.40;;;;;;;3.15;96.34;96750.16;5021431;28;20068;-85
2023/02/02 10:41:21;;;;;;;6.13;2.50;;;;;;;3.18;95.97;96740.75;5027151;28;20044;-80
2023/02/02 10:44:05;;;;;;;13.45;3.10;;;;;;;3.17;97.25;96737.25;5020265;28;20038;-83
2023/02/02 10:46:36;;;;;;;10.70;2.60;;;;;;;3.21;96.45;96727.59;5015542;28;20510;-84
2023/02/02 10:49:16;;;;;;;9.00;2.83;;;;;;;3.23;96.30;96741.59;5012971;28;20064;-83
2023/02/02 10:51:49;;;;;;;6.30;2.45;;;;;;;3.22;96.24;96731.91;5014161;28;20046;-80
2023/02/02 10:54:33;;;;;;;3.53;2.00;;;;;;;3.21;95.87;96743.75;5013705;28;20057;-81
2023/02/02 10:57:04;;;;;;;7.97;2.50;;;;;;;3.22;96.94;96739.97;5022530;28;20119;-79
2023/02/02 10:59:33;;;;;;;7.80;2.47;;;;;;;3.26;96.35;96733.00;5027451;28;20033;-81
2023/02/02 11:01:59;;;;;;;7.22;2.50;;;;;;;3.28;95.42;96736.22;5031192;28;20042;-86
2023/02/02 11:07:18;;;;;;;7.53;2.42;;;;;;;3.26;96.61;96716.84;5014666;28;20100;-85
2023/02/02 11:09:46;;;;;;;7.65;2.30;;;;;;;3.29;95.86;96719.03;5020871;28;20042;-82
2023/02/02 11:12:20;;;;;;;6.38;2.25;;;;;;;3.34;96.54;96724.44;5016482;28;20497;-83
2023/02/02 11:14:50;;;;;;;8.82;2.80;;;;;;;3.37;95.81;96737.34;5014121;28;20489;-87
2023/02/02 11:17:20;;;;;;;8.05;2.50;;;;;;;3.34;96.19;96732.50;5022693;28;20038;-77
2023/02/02 11:19:48;;;;;;;11.18;2.70;;;;;;;3.36;95.68;96737.63;5013457;28;20082;-79
2023/02/02 11:22:29;;;;;;;8.57;2.30;;;;;;;3.34;95.21;96734.38;5011984;28;20046;-79
2023/02/02 11:25:00;;;;;;;7.13;2.17;;;;;;;3.36;95.63;96732.25;5028935;28;20049;-78
2023/02/02 11:27:32;;;;;;;7.72;2.50;;;;;;;3.36;95.71;96735.75;5012605;28;20416;-81
2023/02/02 11:30:00;;;;;;;8.43;2.85;;;;;;;3.34;96.32;96737.06;5020470;28;20669;-79
2023/02/02 11:32:30;;;;;;;9.50;2.80;;;;;;;3.30;96.79;96725.22;5017956;28;20125;-80
2023/02/02 11:35:23;;;;;;;7.78;2.65;;;;;;;3.33;97.01;96741.63;5028647;28;20046;-81
2023/02/02 11:37:55;;;;;;;7.80;2.33;;;;;;;3.30;97.39;96742.19;5012781;28;20050;-80
2023/02/02 11:40:28;;;;;;;5.93;2.38;;;;;;;3.30;98.20;96731.41;5020268;28;20046;-79
2023/02/02 11:42:56;;;;;;;7.63;2.45;;;;;;;3.32;97.19;96736.53;5020050;28;20046;-83
2023/02/02 11:45:30;;;;;;;4.63;2.53;;;;;;;3.34;97.74;96747.81;5022889;28;20041;-79
2023/02/02 11:48:01;;;;;;;8.40;2.70;;;;;;;3.31;98.24;96743.78;5023647;28;20042;-80
2023/02/02 11:50:29;;;;;;;5.55;2.90;;;;;;;3.32;98.78;96739.22;5012223;28;20042;-79
2023/02/02 11:52:56;;;;;;;10.82;2.80;;;;;;;3.30;98.58;96742.19;5028070;28;20046;-79
2023/02/02 11:55:28;;;;;;;9.40;2.78;;;;;;;3.28;97.94;96748.88;5020608;28;20056;-79
2023/02/02 11:58:27;;;;;;;8.83;2.40;;;;;;;3.26;99.89;96767.19;5012765;28;20053;-81
2023/02/02 12:00:56;;;;;;;6.07;2.95;;;;;;;3.24;98.77;96748.59;4937873;29;20047;-82
2023/02/02 12:03:25;;;;;;;6.90;2.83;;;;;;;3.21;98.37;96746.44;4995583;28;20042;-82